createdAt,value
2017-09-07T00:01:06.935Z,4.60
2017-09-07T00:03:34.458Z,4.10
2017-09-07T00:06:01.991Z,5.23
2017-09-07T00:08:29.522Z,3.93
2017-09-07T00:10:57.078Z,4.30
2017-09-07T00:13:25.367Z,4.70
2017-09-07T00:15:52.919Z,5.10
2017-09-07T00:18:20.451Z,4.57
2017-09-07T00:20:48.783Z,4.90
2017-09-07T00:23:16.311Z,3.80
2017-09-07T00:26:19.958Z,4.80
2017-09-07T00:28:47.522Z,4.83
2017-09-07T00:31:15.051Z,4.83
2017-09-07T00:33:42.618Z,4.50
2017-09-07T00:36:10.182Z,4.57
2017-09-07T00:38:38.187Z,4.33
2017-09-07T00:41:06.535Z,4.60
2017-09-07T00:43:34.197Z,5.20
2017-09-07T00:46:01.726Z,4.50
2017-09-07T00:48:29.288Z,4.53
2017-09-07T00:50:57.578Z,4.50
2017-09-07T00:53:25.159Z,4.57
2017-09-07T00:55:52.682Z,4.70
2017-09-07T00:58:21.002Z,4.00
2017-09-07T01:00:48.529Z,4.87
2017-09-07T01:03:16.855Z,5.13
2017-09-07T01:05:44.398Z,4.53
2017-09-07T01:08:11.958Z,5.73
2017-09-07T01:10:39.515Z,4.17
2017-09-07T01:13:07.052Z,5.20
2017-09-07T01:15:34.582Z,4.30
2017-09-07T01:18:02.906Z,5.37
2017-09-07T01:20:30.471Z,4.97
2017-09-07T01:22:58.002Z,4.80
2017-09-07T01:25:26.323Z,4.50
2017-09-07T01:27:53.850Z,5.20
2017-09-07T01:30:21.385Z,5.50
2017-09-07T01:32:48.995Z,4.90
2017-09-07T01:35:16.555Z,4.87
2017-09-07T01:37:44.114Z,4.83
2017-09-07T01:40:11.674Z,5.30
2017-09-07T01:42:39.230Z,5.50
2017-09-07T01:45:06.764Z,4.23
2017-09-07T01:47:35.055Z,5.17
2017-09-07T01:50:02.615Z,4.67
2017-09-07T01:52:30.194Z,5.13
2017-09-07T01:54:57.735Z,5.63
2017-09-07T01:57:25.258Z,4.40
2017-09-07T01:59:52.874Z,5.00
2017-09-07T02:02:20.402Z,5.17
2017-09-07T02:04:47.932Z,6.33
2017-09-07T02:07:16.227Z,5.47
2017-09-07T02:09:44.567Z,5.10
2017-09-07T02:12:12.222Z,5.23
2017-09-07T02:14:39.786Z,5.33
2017-09-07T02:17:07.378Z,5.60
2017-09-07T02:19:35.002Z,5.50
2017-09-07T02:22:02.563Z,5.50
2017-09-07T02:24:30.121Z,5.20
2017-09-07T02:26:57.655Z,5.63
2017-09-07T02:29:25.228Z,5.83
2017-09-07T02:31:52.835Z,6.30
2017-09-07T02:34:20.423Z,5.30
2017-09-07T02:36:48.032Z,4.83
2017-09-07T02:39:15.629Z,4.30
2017-09-07T02:41:43.207Z,4.90
2017-09-07T02:44:10.772Z,4.80
2017-09-07T02:46:38.320Z,5.43
2017-09-07T02:49:05.881Z,4.27
2017-09-07T02:51:33.428Z,5.23
2017-09-07T02:54:01.071Z,4.70
2017-09-07T02:56:28.611Z,5.13
2017-09-07T02:58:56.931Z,5.03
2017-09-07T03:01:24.551Z,5.23
2017-09-07T03:03:52.918Z,5.93
2017-09-07T03:06:20.547Z,5.07
2017-09-07T03:08:48.121Z,6.00
2017-09-07T03:11:15.719Z,4.83
2017-09-07T03:13:44.040Z,5.23
2017-09-07T03:16:11.723Z,5.33
2017-09-07T03:18:39.277Z,4.80
2017-09-07T03:21:06.891Z,5.13
2017-09-07T03:23:34.451Z,5.07
2017-09-07T03:26:02.154Z,6.07
2017-09-07T03:28:29.766Z,4.63
2017-09-07T03:30:57.313Z,4.87
2017-09-07T03:33:24.850Z,4.80
2017-09-07T03:35:52.386Z,5.10
2017-09-07T03:38:19.933Z,4.93
2017-09-07T03:40:48.258Z,5.77
2017-09-07T03:43:15.782Z,5.10
2017-09-07T03:45:43.317Z,4.83
2017-09-07T03:48:10.851Z,4.57
2017-09-07T03:50:38.378Z,5.70
2017-09-07T03:53:05.918Z,5.40
2017-09-07T03:55:34.230Z,5.23
2017-09-07T03:58:01.897Z,5.83
2017-09-07T04:00:29.422Z,5.70
2017-09-07T04:02:56.980Z,5.50
2017-09-07T04:05:25.274Z,5.00
2017-09-07T04:07:52.869Z,6.30
2017-09-07T04:10:20.455Z,5.97
2017-09-07T04:12:47.987Z,5.50
2017-09-07T04:15:15.510Z,5.80
2017-09-07T04:17:43.112Z,5.67
2017-09-07T04:20:10.651Z,5.87
2017-09-07T04:22:38.195Z,5.33
2017-09-07T04:25:05.768Z,5.33
2017-09-07T04:27:33.293Z,5.43
2017-09-07T04:30:01.712Z,6.17
2017-09-07T04:32:29.277Z,5.47
2017-09-07T04:34:56.921Z,5.67
2017-09-07T04:37:24.511Z,6.20
2017-09-07T04:39:52.062Z,6.23
2017-09-07T04:42:19.627Z,5.93
2017-09-07T04:44:47.154Z,5.90
2017-09-07T04:47:14.682Z,7.27
2017-09-07T04:49:42.210Z,6.70
2017-09-07T04:52:09.770Z,6.43
2017-09-07T04:54:37.330Z,6.33
2017-09-07T04:57:04.990Z,6.83
2017-09-07T04:59:32.526Z,6.90
2017-09-07T05:02:00.111Z,5.73
2017-09-07T05:04:27.641Z,6.10
2017-09-07T05:06:55.233Z,6.30
2017-09-07T05:09:22.803Z,6.50
2017-09-07T05:11:50.327Z,6.70
2017-09-07T05:14:17.909Z,7.03
2017-09-07T05:16:45.438Z,6.47
2017-09-07T05:19:13.762Z,6.93
2017-09-07T05:21:41.286Z,6.57
2017-09-07T05:24:08.839Z,7.00
2017-09-07T05:26:37.130Z,6.47
2017-09-07T05:29:04.690Z,6.37
2017-09-07T05:31:32.270Z,6.23
2017-09-07T05:33:59.803Z,6.57
2017-09-07T05:36:27.386Z,6.00
2017-09-07T05:38:54.914Z,6.03
2017-09-07T05:41:23.214Z,6.20
2017-09-07T05:43:50.798Z,5.87
2017-09-07T05:46:18.351Z,5.30
2017-09-07T05:48:45.913Z,6.60
2017-09-07T05:51:13.463Z,6.10
2017-09-07T05:53:40.986Z,5.57
2017-09-07T05:56:09.306Z,5.27
2017-09-07T05:58:37.965Z,5.47
2017-09-07T06:01:05.514Z,6.73
2017-09-07T06:03:33.043Z,5.73
2017-09-07T06:06:00.678Z,6.00
2017-09-07T06:08:28.216Z,5.80
2017-09-07T06:10:55.803Z,6.60
2017-09-07T06:13:23.334Z,6.30
2017-09-07T06:15:51.747Z,5.87
2017-09-07T06:18:19.274Z,7.00
2017-09-07T06:20:47.586Z,5.90
2017-09-07T06:23:15.148Z,6.10
2017-09-07T06:25:42.678Z,6.13
2017-09-07T06:28:10.267Z,5.77
2017-09-07T06:30:37.896Z,6.20
2017-09-07T06:33:06.258Z,5.80
2017-09-07T06:35:33.823Z,5.60
2017-09-07T06:38:01.495Z,6.13
2017-09-07T06:40:29.854Z,6.07
2017-09-07T06:42:57.449Z,6.63
2017-09-07T06:45:25.009Z,5.80
2017-09-07T06:47:53.448Z,5.67
2017-09-07T06:50:21.059Z,5.30
2017-09-07T06:52:49.635Z,6.43
2017-09-07T06:55:18.112Z,6.17
2017-09-07T06:57:46.518Z,5.10
2017-09-07T07:00:21.191Z,5.10
2017-09-07T07:02:48.791Z,5.43
2017-09-07T07:05:17.164Z,5.27
2017-09-07T07:07:45.637Z,6.67
2017-09-07T07:10:14.160Z,5.90
2017-09-07T07:12:41.781Z,5.27
2017-09-07T07:15:10.353Z,5.77
2017-09-07T07:17:37.959Z,6.10
2017-09-07T07:20:05.561Z,5.13
2017-09-07T07:22:33.114Z,5.43
2017-09-07T07:25:00.777Z,6.10
2017-09-07T07:27:28.344Z,5.90
2017-09-07T07:29:55.892Z,4.97
2017-09-07T07:32:23.441Z,5.60
2017-09-07T07:34:51.198Z,5.30
2017-09-07T07:37:18.835Z,4.90
2017-09-07T07:39:47.178Z,5.27
2017-09-07T07:42:14.721Z,5.57
2017-09-07T07:44:42.308Z,5.30
2017-09-07T07:47:09.866Z,5.20
2017-09-07T07:49:37.417Z,4.97
2017-09-07T07:52:04.996Z,4.63
2017-09-07T07:54:32.539Z,4.90
2017-09-07T07:57:00.087Z,4.77
2017-09-07T07:59:27.639Z,4.73
2017-09-07T08:01:55.185Z,5.77
2017-09-07T08:04:22.784Z,5.53
2017-09-07T08:06:50.378Z,4.60
2017-09-07T08:09:18.764Z,5.63
2017-09-07T08:11:46.308Z,5.37
2017-09-07T08:14:14.014Z,6.13
2017-09-07T08:16:41.614Z,5.60
2017-09-07T08:19:09.202Z,6.00
2017-09-07T08:21:37.584Z,5.17
2017-09-07T08:24:05.992Z,4.83
2017-09-07T08:26:33.612Z,5.70
2017-09-07T08:29:01.209Z,5.00
2017-09-07T08:31:28.830Z,5.07
2017-09-07T08:33:56.957Z,5.00
2017-09-07T08:36:24.500Z,5.53
2017-09-07T08:38:52.042Z,5.23
2017-09-07T08:41:19.582Z,5.50
2017-09-07T08:43:47.175Z,5.30
2017-09-07T08:46:14.734Z,5.37
2017-09-07T08:48:42.270Z,5.33
2017-09-07T08:51:09.863Z,5.27
2017-09-07T08:53:37.416Z,4.73
2017-09-07T08:56:05.002Z,4.50
2017-09-07T08:58:32.634Z,4.90
2017-09-07T09:01:00.192Z,4.57
2017-09-07T09:03:27.724Z,5.50
2017-09-07T09:05:56.026Z,4.37
2017-09-07T09:08:23.596Z,5.60
2017-09-07T09:10:51.162Z,5.03
2017-09-07T09:13:18.710Z,5.23
2017-09-07T09:15:46.275Z,6.40
2017-09-07T09:18:13.811Z,6.40
2017-09-07T09:20:42.102Z,6.10
2017-09-07T09:23:09.674Z,6.57
2017-09-07T09:25:37.210Z,5.40
2017-09-07T09:28:04.798Z,6.40
2017-09-07T09:30:32.322Z,5.80
2017-09-07T09:33:00.638Z,6.93
2017-09-07T09:35:28.162Z,5.87
2017-09-07T09:37:56.583Z,5.37
2017-09-07T09:40:24.122Z,5.47
2017-09-07T09:42:51.655Z,5.53
2017-09-07T09:45:19.978Z,4.47
2017-09-07T09:47:47.511Z,4.83
2017-09-07T09:50:15.034Z,4.20
2017-09-07T09:52:42.559Z,4.30
2017-09-07T09:55:10.086Z,4.47
2017-09-07T09:57:38.369Z,4.27
2017-09-07T10:00:05.935Z,4.30
2017-09-07T10:02:33.474Z,4.83
2017-09-07T10:05:01.791Z,4.03
2017-09-07T10:07:29.317Z,5.20
2017-09-07T10:09:57.739Z,4.70
2017-09-07T10:12:25.265Z,4.40
2017-09-07T10:14:52.854Z,4.90
2017-09-07T10:17:20.386Z,4.23
2017-09-07T10:19:47.927Z,4.27
2017-09-07T10:22:16.250Z,4.13
2017-09-07T10:24:43.826Z,4.43
2017-09-07T10:27:11.370Z,4.50
2017-09-07T10:29:38.895Z,3.50
2017-09-07T10:32:07.310Z,3.60
2017-09-07T10:34:34.904Z,4.57
2017-09-07T10:37:02.633Z,4.23
2017-09-07T10:39:31.038Z,4.40
2017-09-07T10:41:58.823Z,4.70
2017-09-07T10:44:26.558Z,4.90
2017-09-07T10:46:56.307Z,5.50
2017-09-07T10:49:24.485Z,4.83
2017-09-07T10:51:52.442Z,4.83
2017-09-07T10:54:20.010Z,4.60
2017-09-07T10:56:47.669Z,5.70
2017-09-07T10:59:15.284Z,5.10
2017-09-07T11:01:43.654Z,5.10
2017-09-07T11:04:11.283Z,4.63
2017-09-07T11:06:38.932Z,5.40
2017-09-07T11:09:06.542Z,5.70
2017-09-07T11:11:34.159Z,4.47
2017-09-07T11:14:01.847Z,4.67
2017-09-07T11:16:29.560Z,4.87
2017-09-07T11:18:58.042Z,4.40
2017-09-07T11:21:25.683Z,5.60
2017-09-07T11:23:53.368Z,4.83
2017-09-07T11:26:21.891Z,4.27
2017-09-07T11:28:49.466Z,4.00
2017-09-07T11:31:17.026Z,3.67
2017-09-07T11:33:44.592Z,4.10
2017-09-07T11:36:12.175Z,4.50
2017-09-07T11:38:39.734Z,4.93
2017-09-07T11:41:07.311Z,4.37
2017-09-07T11:43:35.736Z,3.83
2017-09-07T11:46:03.488Z,3.87
2017-09-07T11:48:31.161Z,4.27
2017-09-07T11:50:58.805Z,4.43
2017-09-07T11:53:26.951Z,5.30
2017-09-07T11:55:55.445Z,4.40
2017-09-07T11:58:23.779Z,4.37
2017-09-07T12:00:51.316Z,4.90
2017-09-07T12:03:18.856Z,3.97
2017-09-07T12:05:46.406Z,3.80
2017-09-07T12:08:14.766Z,4.50
2017-09-07T12:10:42.423Z,3.60
2017-09-07T12:13:10.006Z,3.63
2017-09-07T12:15:38.321Z,3.70
2017-09-07T12:18:08.067Z,4.20
2017-09-07T12:20:36.439Z,3.60
2017-09-07T12:23:03.986Z,3.97
2017-09-07T12:25:31.522Z,4.03
2017-09-07T12:27:59.058Z,4.30
2017-09-07T12:30:27.365Z,4.03
2017-09-07T12:32:56.719Z,4.67
2017-09-07T12:35:27.370Z,4.90
2017-09-07T12:37:55.024Z,5.00
2017-09-07T12:40:23.724Z,5.43
2017-09-07T12:42:52.097Z,6.47
2017-09-07T12:45:20.792Z,6.33
2017-09-07T12:47:49.572Z,6.53
2017-09-07T12:50:17.240Z,6.20
2017-09-07T12:52:45.570Z,6.20
2017-09-07T12:55:13.210Z,5.50
2017-09-07T12:57:40.750Z,5.83
2017-09-07T13:00:09.239Z,5.70
2017-09-07T13:02:37.407Z,6.40
2017-09-07T13:05:07.312Z,6.17
2017-09-07T13:07:35.631Z,5.00
2017-09-07T13:10:03.188Z,5.60
2017-09-07T13:12:30.954Z,6.13
2017-09-07T13:14:58.658Z,6.43
2017-09-07T13:17:26.348Z,6.13
2017-09-07T13:19:54.687Z,4.93
2017-09-07T13:22:22.238Z,3.30
2017-09-07T13:24:49.782Z,3.57
2017-09-07T13:27:17.414Z,3.97
2017-09-07T13:29:45.108Z,3.70
2017-09-07T13:32:12.837Z,4.30
2017-09-07T13:34:41.741Z,4.07
2017-09-07T13:37:09.536Z,3.90
2017-09-07T13:39:37.061Z,5.00
2017-09-07T13:42:04.590Z,4.83
2017-09-07T13:44:32.127Z,5.07
2017-09-07T13:46:59.646Z,4.80
2017-09-07T13:49:27.950Z,5.70
2017-09-07T13:51:55.479Z,5.47
2017-09-07T13:54:23.775Z,5.50
2017-09-07T13:56:51.303Z,6.00
2017-09-07T13:59:18.870Z,6.40
2017-09-07T14:01:47.166Z,6.90
2017-09-07T14:04:14.739Z,7.10
2017-09-07T14:06:42.266Z,6.80
2017-09-07T14:09:10.585Z,6.23
2017-09-07T14:11:38.126Z,6.27
2017-09-07T14:14:05.700Z,6.50
2017-09-07T14:16:33.237Z,6.27
2017-09-07T14:19:00.774Z,6.63
2017-09-07T14:21:28.311Z,6.13
2017-09-07T14:23:55.843Z,6.40
2017-09-07T14:26:23.375Z,6.10
2017-09-07T14:28:50.910Z,6.40
2017-09-07T14:31:18.474Z,7.30
2017-09-07T14:33:46.010Z,7.67
2017-09-07T14:36:13.572Z,6.40
2017-09-07T14:38:41.109Z,6.77
2017-09-07T14:41:08.665Z,6.83
2017-09-07T14:43:36.216Z,7.33
2017-09-07T14:46:03.770Z,6.17
2017-09-07T14:48:31.295Z,7.13
2017-09-07T14:50:58.855Z,6.73
2017-09-07T14:53:26.378Z,6.90
2017-09-07T14:55:53.906Z,5.73
2017-09-07T14:58:21.438Z,7.03
2017-09-07T15:00:48.964Z,6.40
2017-09-07T15:03:16.491Z,6.50
2017-09-07T15:05:44.021Z,5.60
2017-09-07T15:08:11.554Z,6.50
2017-09-07T15:10:39.083Z,7.30
2017-09-07T15:13:06.614Z,6.73
2017-09-07T15:15:34.930Z,7.07
2017-09-07T15:18:02.490Z,6.50
2017-09-07T15:20:30.022Z,6.47
2017-09-07T15:22:58.353Z,6.20
2017-09-07T15:25:25.884Z,6.00
2017-09-07T15:27:53.442Z,5.60
2017-09-07T15:30:20.962Z,5.53
2017-09-07T15:32:48.527Z,7.00
2017-09-07T15:35:16.051Z,6.70
2017-09-07T15:37:43.574Z,5.90
2017-09-07T15:40:11.365Z,6.03
2017-09-07T15:42:38.983Z,6.20
2017-09-07T15:45:06.514Z,5.47
2017-09-07T15:47:34.812Z,5.77
2017-09-07T15:50:02.342Z,6.87
2017-09-07T15:52:29.875Z,6.50
2017-09-07T15:54:57.418Z,6.00
2017-09-07T15:57:24.955Z,5.90
2017-09-07T15:59:52.519Z,5.63
2017-09-07T16:02:20.082Z,6.17
2017-09-07T16:04:47.650Z,5.97
2017-09-07T16:07:17.038Z,6.23
2017-09-07T16:09:44.611Z,6.37
2017-09-07T16:12:12.159Z,6.30
2017-09-07T16:14:39.743Z,5.77
2017-09-07T16:17:07.283Z,7.20
2017-09-07T16:19:34.843Z,6.70
2017-09-07T16:22:02.387Z,5.97
2017-09-07T16:24:29.923Z,7.03
2017-09-07T16:26:57.499Z,6.67
2017-09-07T16:29:25.031Z,7.37
2017-09-07T16:31:52.599Z,6.77
2017-09-07T16:34:20.150Z,6.30
2017-09-07T16:36:47.721Z,6.47
2017-09-07T16:39:15.251Z,7.37
2017-09-07T16:41:42.834Z,6.50
2017-09-07T16:44:10.368Z,7.53
2017-09-07T16:46:37.952Z,7.93
2017-09-07T16:49:05.510Z,7.30
2017-09-07T16:51:33.053Z,6.23
2017-09-07T16:54:00.582Z,6.90
2017-09-07T16:56:28.110Z,7.60
2017-09-07T16:58:55.668Z,7.33
2017-09-07T17:01:23.206Z,6.50
2017-09-07T17:03:50.758Z,7.93
2017-09-07T17:06:18.307Z,6.90
2017-09-07T17:08:45.862Z,6.90
2017-09-07T17:11:13.391Z,7.60
2017-09-07T17:13:40.951Z,7.37
2017-09-07T17:16:08.486Z,7.77
2017-09-07T17:18:36.059Z,6.80
2017-09-07T17:21:04.354Z,7.77
2017-09-07T17:23:31.896Z,7.07
2017-09-07T17:26:00.191Z,8.27
2017-09-07T17:28:27.723Z,7.90
2017-09-07T17:30:55.279Z,10.80
2017-09-07T17:33:22.819Z,7.83
2017-09-07T17:35:50.379Z,8.37
2017-09-07T17:38:17.919Z,8.00
2017-09-07T17:40:45.471Z,8.33
2017-09-07T17:43:13.003Z,8.10
2017-09-07T17:45:40.567Z,9.13
2017-09-07T17:48:08.120Z,7.97
2017-09-07T17:50:36.447Z,8.30
2017-09-07T17:53:03.971Z,8.00
2017-09-07T17:55:31.551Z,6.90
2017-09-07T17:57:59.086Z,6.87
2017-09-07T18:00:26.620Z,8.43
2017-09-07T18:02:54.170Z,7.43
2017-09-07T18:05:21.700Z,7.33
2017-09-07T18:07:49.232Z,6.90
2017-09-07T18:10:16.778Z,7.30
2017-09-07T18:12:44.302Z,8.60
2017-09-07T18:15:11.823Z,6.70
2017-09-07T18:17:39.354Z,7.10
2017-09-07T18:20:07.650Z,7.37
2017-09-07T18:22:35.978Z,7.10
2017-09-07T18:25:03.503Z,6.90
2017-09-07T18:27:31.026Z,7.40
2017-09-07T18:29:58.556Z,7.40
2017-09-07T18:32:26.083Z,7.13
2017-09-07T18:34:53.611Z,7.63
2017-09-07T18:37:21.910Z,8.13
2017-09-07T18:39:49.439Z,7.20
2017-09-07T18:42:17.742Z,7.80
2017-09-07T18:44:45.279Z,7.10
2017-09-07T18:47:12.834Z,6.77
2017-09-07T18:49:40.375Z,7.40
2017-09-07T18:52:07.949Z,7.20
2017-09-07T18:54:35.512Z,7.23
2017-09-07T18:57:03.078Z,7.50
2017-09-07T18:59:30.638Z,7.97
2017-09-07T19:01:58.187Z,7.30
2017-09-07T19:04:25.771Z,7.07
2017-09-07T19:06:53.311Z,7.50
2017-09-07T19:09:20.858Z,7.60
2017-09-07T19:11:48.410Z,7.20
2017-09-07T19:14:15.959Z,6.70
2017-09-07T19:16:43.497Z,6.80
2017-09-07T19:19:11.799Z,7.20
2017-09-07T19:21:39.338Z,7.83
2017-09-07T19:26:59.904Z,6.70
2017-09-07T19:29:27.451Z,7.20
2017-09-07T19:31:55.019Z,7.70
2017-09-07T19:34:22.567Z,8.50
2017-09-07T19:36:50.145Z,8.40
2017-09-07T19:39:17.693Z,6.90
2017-09-07T19:41:45.271Z,7.43
2017-09-07T19:44:12.814Z,7.73
2017-09-07T19:49:18.752Z,7.00
2017-09-07T19:51:46.334Z,6.37
2017-09-07T19:54:13.863Z,7.50
2017-09-07T19:56:41.391Z,7.63
2017-09-07T19:59:08.926Z,7.33
2017-09-07T20:01:36.456Z,7.87
2017-09-07T20:04:03.986Z,7.50
2017-09-07T20:06:32.277Z,7.77
2017-09-07T20:08:59.830Z,7.83
2017-09-07T20:11:27.358Z,7.30
2017-09-07T20:13:54.916Z,7.73
2017-09-07T20:16:22.458Z,7.17
2017-09-07T20:18:50.035Z,7.33
2017-09-07T20:21:17.593Z,6.90
2017-09-07T20:23:45.171Z,7.47
2017-09-07T20:26:13.484Z,7.60
2017-09-07T20:28:41.015Z,7.03
2017-09-07T20:31:08.547Z,7.27
2017-09-07T20:33:36.078Z,6.57
2017-09-07T20:36:03.643Z,6.73
2017-09-07T20:38:31.176Z,6.93
2017-09-07T20:40:58.734Z,6.90
2017-09-07T20:43:27.028Z,8.10
2017-09-07T20:45:54.582Z,6.63
2017-09-07T20:48:22.106Z,7.30
2017-09-07T20:50:49.665Z,6.93
2017-09-07T20:53:17.194Z,7.63
2017-09-07T20:55:44.771Z,7.27
2017-09-07T20:58:12.319Z,7.70
2017-09-07T21:00:39.855Z,8.80
2017-09-07T21:03:07.405Z,7.37
2017-09-07T21:05:34.947Z,7.93
2017-09-07T21:08:03.254Z,7.60
2017-09-07T21:10:30.779Z,8.43
2017-09-07T21:12:58.332Z,7.70
2017-09-07T21:15:25.862Z,8.50
2017-09-07T21:17:53.419Z,8.60
2017-09-07T21:20:20.959Z,7.93
2017-09-07T21:22:48.511Z,8.40
2017-09-07T21:25:16.043Z,8.60
2017-09-07T21:27:43.610Z,8.47
2017-09-07T21:30:11.142Z,7.53
2017-09-07T21:32:38.675Z,9.50
2017-09-07T21:35:06.207Z,8.07
2017-09-07T21:37:33.735Z,8.20
2017-09-07T21:40:01.265Z,8.40
2017-09-07T21:42:28.786Z,7.97
2017-09-07T21:44:56.314Z,8.83
2017-09-07T21:47:24.623Z,8.00
2017-09-07T21:49:52.155Z,8.60
2017-09-07T21:52:20.455Z,9.43
2017-09-07T21:54:48.015Z,9.47
2017-09-07T21:57:15.543Z,8.47
2017-09-07T21:59:43.107Z,9.67
2017-09-07T22:02:10.644Z,9.27
2017-09-07T22:04:38.219Z,9.27
2017-09-07T22:07:05.747Z,8.90
2017-09-07T22:09:33.279Z,10.70
2017-09-07T22:12:00.811Z,9.20
2017-09-07T22:14:28.359Z,10.57
2017-09-07T22:16:55.899Z,10.10
2017-09-07T22:19:23.442Z,9.53
2017-09-07T22:21:50.995Z,9.50
2017-09-07T22:24:18.530Z,11.00
2017-09-07T22:26:46.100Z,9.57
2017-09-07T22:29:13.647Z,9.27
2017-09-07T22:31:41.203Z,9.33
2017-09-07T22:34:09.498Z,9.33
2017-09-07T22:36:37.027Z,9.70
2017-09-07T22:39:04.586Z,10.70
2017-09-07T22:41:32.110Z,9.20
2017-09-07T22:43:59.665Z,9.40
2017-09-07T22:46:27.195Z,10.63
2017-09-07T22:48:55.516Z,9.00
2017-09-07T22:51:23.052Z,8.87
2017-09-07T22:53:50.602Z,9.20
2017-09-07T22:56:18.122Z,9.07
2017-09-07T22:58:45.674Z,8.70
2017-09-07T23:01:13.203Z,9.07
2017-09-07T23:03:40.730Z,9.10
2017-09-07T23:06:08.264Z,10.40
2017-09-07T23:08:35.791Z,9.30
2017-09-07T23:11:03.319Z,8.20
2017-09-07T23:13:30.850Z,8.23
2017-09-07T23:15:58.391Z,7.90
2017-09-07T23:18:25.918Z,7.90
2017-09-07T23:20:53.448Z,8.20
2017-09-07T23:23:20.985Z,9.00
2017-09-07T23:25:48.519Z,8.80
2017-09-07T23:28:16.045Z,9.60
2017-09-07T23:30:43.608Z,7.10
2017-09-07T23:33:11.138Z,8.57
2017-09-07T23:35:38.663Z,7.43
2017-09-07T23:38:06.186Z,8.03
2017-09-07T23:40:33.712Z,7.23
2017-09-07T23:43:01.239Z,7.63
2017-09-07T23:45:28.774Z,8.10
2017-09-07T23:47:56.299Z,7.80
2017-09-07T23:50:23.825Z,7.97
2017-09-07T23:52:51.360Z,7.90
2017-09-07T23:55:18.893Z,8.50
2017-09-07T23:57:46.467Z,7.83
